createdAt,value
2022-11-11T00:00:32.938Z,55.80
2022-11-11T00:02:49.550Z,57.58
2022-11-11T00:04:51.666Z,56.28
2022-11-11T00:06:54.169Z,62.90
2022-11-11T00:08:56.224Z,60.28
2022-11-11T00:11:24.094Z,54.33
2022-11-11T00:13:26.577Z,55.28
2022-11-11T00:15:29.595Z,58.65
2022-11-11T00:17:50.167Z,55.42
2022-11-11T00:20:11.007Z,57.90
2022-11-11T00:22:39.845Z,51.80
2022-11-11T00:25:00.395Z,61.15
2022-11-11T00:27:03.540Z,53.65
2022-11-11T00:29:05.371Z,57.58
2022-11-11T00:31:09.835Z,60.10
2022-11-11T00:33:12.568Z,51.72
2022-11-11T00:35:33.427Z,57.13
2022-11-11T00:37:35.944Z,53.35
2022-11-11T00:39:38.273Z,50.80
2022-11-11T00:41:40.238Z,55.05
2022-11-11T00:43:42.979Z,62.10
2022-11-11T00:45:45.167Z,65.53
2022-11-11T00:48:05.616Z,58.13
2022-11-11T00:50:30.659Z,63.53
2022-11-11T00:52:33.111Z,55.22
2022-11-11T00:54:35.093Z,58.17
2022-11-11T00:56:37.730Z,61.37
2022-11-11T01:00:41.797Z,63.22
2022-11-11T01:02:43.734Z,57.45
2022-11-11T01:04:46.011Z,59.60
2022-11-11T01:06:47.819Z,55.50
2022-11-11T01:08:49.735Z,54.20
2022-11-11T01:10:52.123Z,55.72
2022-11-11T01:13:12.381Z,57.78
2022-11-11T01:15:14.784Z,54.17
2022-11-11T01:17:17.012Z,53.67
2022-11-11T01:19:18.917Z,56.80
2022-11-11T01:21:23.318Z,57.88
2022-11-11T01:23:25.622Z,66.32
2022-11-11T01:25:27.479Z,63.25
2022-11-11T01:27:29.347Z,52.30
2022-11-11T01:29:31.567Z,55.45
2022-11-11T01:31:33.468Z,50.13
2022-11-11T01:33:36.202Z,50.22
2022-11-11T01:35:40.213Z,50.92
2022-11-11T01:37:42.256Z,59.47
2022-11-11T01:39:44.165Z,46.03
2022-11-11T01:41:46.303Z,47.35
2022-11-11T01:43:48.421Z,54.97
2022-11-11T01:46:00.177Z,51.38
2022-11-11T01:48:26.445Z,49.28
2022-11-11T01:50:30.513Z,47.88
2022-11-11T01:52:40.039Z,43.55
2022-11-11T01:54:54.527Z,56.60
2022-11-11T01:57:02.783Z,50.30
2022-11-11T01:59:11.420Z,48.80
2022-11-11T02:01:13.809Z,50.67
2022-11-11T02:03:19.027Z,47.47
2022-11-11T02:05:41.261Z,52.55
2022-11-11T02:07:43.741Z,47.70
2022-11-11T02:09:47.758Z,49.42
2022-11-11T02:12:09.928Z,50.00
2022-11-11T02:14:33.034Z,47.22
2022-11-11T02:16:35.190Z,49.42
2022-11-11T02:18:37.176Z,53.22
2022-11-11T02:20:43.499Z,50.90
2022-11-11T02:22:54.040Z,44.17
2022-11-11T02:24:57.125Z,47.30
2022-11-11T02:27:01.919Z,50.97
2022-11-11T02:29:09.196Z,43.10
2022-11-11T02:31:11.100Z,47.80
2022-11-11T02:33:13.303Z,51.53
2022-11-11T02:35:31.590Z,51.67
2022-11-11T02:37:33.549Z,52.83
2022-11-11T02:40:02.465Z,49.20
2022-11-11T02:42:10.431Z,48.53
2022-11-11T02:44:12.301Z,56.90
2022-11-11T02:46:14.641Z,50.92
2022-11-11T02:48:16.673Z,43.97
2022-11-11T02:50:18.791Z,48.70
2022-11-11T02:52:21.429Z,54.33
2022-11-11T02:54:23.469Z,48.78
2022-11-11T02:56:44.591Z,43.45
2022-11-11T02:58:46.998Z,49.10
2022-11-11T03:00:48.850Z,46.78
2022-11-11T03:02:50.957Z,50.07
2022-11-11T03:04:54.931Z,52.08
2022-11-11T03:06:56.983Z,56.08
2022-11-11T03:08:59.070Z,54.35
2022-11-11T03:11:01.429Z,50.95
2022-11-11T03:13:03.626Z,49.40
2022-11-11T03:15:06.291Z,48.55
2022-11-11T03:17:27.379Z,49.25
2022-11-11T03:19:29.708Z,54.35
2022-11-11T03:23:53.688Z,53.00
2022-11-11T03:25:58.277Z,60.45
2022-11-11T03:28:00.263Z,51.00
2022-11-11T03:30:02.400Z,43.97
2022-11-11T03:32:04.669Z,48.60
2022-11-11T03:34:18.620Z,61.13
2022-11-11T03:36:20.925Z,50.15
2022-11-11T03:38:25.362Z,50.22
2022-11-11T03:40:27.536Z,51.25
2022-11-11T03:42:29.679Z,46.80
2022-11-11T03:44:31.505Z,60.28
2022-11-11T03:46:33.359Z,44.17
2022-11-11T03:48:35.760Z,44.67
2022-11-11T03:50:38.076Z,46.08
2022-11-11T03:52:46.129Z,44.63
2022-11-11T03:54:48.435Z,42.33
2022-11-11T03:56:50.194Z,48.58
2022-11-11T03:58:52.020Z,43.65
2022-11-11T04:00:55.691Z,48.83
2022-11-11T04:03:40.344Z,49.70
2022-11-11T04:06:00.699Z,49.28
2022-11-11T04:08:21.718Z,38.95
2022-11-11T04:10:23.756Z,42.08
2022-11-11T04:12:26.979Z,47.03
2022-11-11T04:14:47.590Z,41.00
2022-11-11T04:16:49.658Z,39.90
2022-11-11T04:19:29.730Z,42.88
2022-11-11T04:21:43.810Z,40.88
2022-11-11T04:23:45.603Z,37.53
2022-11-11T04:25:50.034Z,38.42
2022-11-11T04:28:12.206Z,45.30
2022-11-11T04:30:14.060Z,38.47
2022-11-11T04:32:35.911Z,51.15
2022-11-11T04:34:38.083Z,36.42
2022-11-11T04:36:39.876Z,48.70
2022-11-11T04:39:00.468Z,44.05
2022-11-11T04:41:05.610Z,39.05
2022-11-11T04:43:07.384Z,37.03
2022-11-11T04:45:30.698Z,41.28
2022-11-11T04:49:34.603Z,45.10
2022-11-11T04:51:54.835Z,40.45
2022-11-11T04:53:57.096Z,45.17
2022-11-11T04:56:17.130Z,39.00
2022-11-11T04:58:21.632Z,40.05
2022-11-11T05:00:28.933Z,41.83
2022-11-11T05:02:51.820Z,40.03
2022-11-11T05:04:53.604Z,36.25
2022-11-11T05:07:14.344Z,45.00
2022-11-11T05:09:16.138Z,43.65
2022-11-11T05:11:19.008Z,38.60
2022-11-11T05:16:02.155Z,42.75
2022-11-11T05:18:22.712Z,37.88
2022-11-11T05:20:43.469Z,35.33
2022-11-11T05:22:45.314Z,37.35
2022-11-11T05:25:05.670Z,44.10
2022-11-11T05:27:08.190Z,36.78
2022-11-11T05:29:09.991Z,41.05
2022-11-11T05:31:11.778Z,35.20
2022-11-11T05:33:13.989Z,35.17
2022-11-11T05:35:16.403Z,38.25
2022-11-11T05:37:18.879Z,38.45
2022-11-11T05:39:21.002Z,33.80
2022-11-11T05:41:22.824Z,41.63
2022-11-11T05:43:24.914Z,33.38
2022-11-11T05:45:27.318Z,36.10
2022-11-11T05:47:29.209Z,35.72
2022-11-11T05:49:31.063Z,35.80
2022-11-11T05:51:36.766Z,32.67
2022-11-11T05:53:40.847Z,36.08
2022-11-11T05:55:42.631Z,35.75
2022-11-11T05:57:45.048Z,34.22
2022-11-11T05:59:48.413Z,38.78
2022-11-11T06:01:50.472Z,36.28
2022-11-11T06:03:52.655Z,35.30
2022-11-11T06:05:54.619Z,38.95
2022-11-11T06:07:56.414Z,35.42
2022-11-11T06:10:18.815Z,33.38
2022-11-11T06:12:20.967Z,34.03
2022-11-11T06:14:22.872Z,33.22
2022-11-11T06:16:25.067Z,33.20
2022-11-11T06:18:30.897Z,30.27
2022-11-11T06:20:35.451Z,32.88
2022-11-11T06:22:56.191Z,30.10
2022-11-11T06:25:18.310Z,33.60
2022-11-11T06:27:20.099Z,35.78
2022-11-11T06:29:22.313Z,34.40
2022-11-11T06:31:26.227Z,32.33
2022-11-11T06:33:28.353Z,38.85
2022-11-11T06:35:30.762Z,27.73
2022-11-11T06:37:32.708Z,31.00
2022-11-11T06:39:37.440Z,41.22
2022-11-11T06:41:39.668Z,30.63
2022-11-11T06:43:42.784Z,33.97
2022-11-11T06:45:45.411Z,32.53
2022-11-11T06:47:47.600Z,33.75
2022-11-11T06:49:49.428Z,31.23
2022-11-11T06:51:51.391Z,33.38
2022-11-11T06:53:53.644Z,33.50
2022-11-11T06:55:55.876Z,32.72
2022-11-11T06:58:05.353Z,31.38
2022-11-11T07:00:08.297Z,27.73
2022-11-11T07:02:13.625Z,29.83
2022-11-11T07:04:15.440Z,26.77
2022-11-11T07:06:17.607Z,27.85
2022-11-11T07:08:19.510Z,32.42
2022-11-11T07:10:22.204Z,31.88
2022-11-11T07:14:27.512Z,27.00
2022-11-11T07:16:29.537Z,34.78
2022-11-11T07:18:31.730Z,29.92
2022-11-11T07:20:34.091Z,26.75
2022-11-11T07:22:38.237Z,30.13
2022-11-11T07:24:40.731Z,28.70
2022-11-11T07:26:42.537Z,26.15
2022-11-11T07:28:44.404Z,27.35
2022-11-11T07:30:46.534Z,31.00
2022-11-11T07:32:50.557Z,32.40
2022-11-11T07:34:52.547Z,31.20
2022-11-11T07:36:54.758Z,30.63
2022-11-11T07:38:56.611Z,30.48
2022-11-11T07:40:58.495Z,33.83
2022-11-11T07:43:00.631Z,30.60
2022-11-11T07:45:02.499Z,25.15
2022-11-11T07:47:04.465Z,28.63
2022-11-11T07:49:06.707Z,30.60
2022-11-11T07:51:08.537Z,25.77
2022-11-11T07:53:10.359Z,32.50
2022-11-11T07:55:12.779Z,33.60
2022-11-11T07:57:14.625Z,24.00
2022-11-11T07:59:16.595Z,29.48
2022-11-11T08:01:19.244Z,27.42
2022-11-11T08:03:21.627Z,24.88
2022-11-11T08:05:23.961Z,31.90
2022-11-11T08:07:26.513Z,33.83
2022-11-11T08:09:28.631Z,28.60
2022-11-11T08:11:49.079Z,34.33
2022-11-11T08:13:52.238Z,28.52
2022-11-11T08:15:55.987Z,27.95
2022-11-11T08:17:57.786Z,27.75
2022-11-11T08:20:00.113Z,29.02
2022-11-11T08:22:02.119Z,31.38
2022-11-11T08:24:56.846Z,29.07
2022-11-11T08:26:29.819Z,26.88
2022-11-11T08:28:34.307Z,28.85
2022-11-11T08:30:36.099Z,23.88
2022-11-11T08:32:38.599Z,29.40
2022-11-11T08:34:40.515Z,28.13
2022-11-11T08:36:42.508Z,22.50
2022-11-11T08:38:44.918Z,27.50
2022-11-11T08:40:47.195Z,30.20
2022-11-11T08:42:49.195Z,29.58
2022-11-11T08:44:51.923Z,26.25
2022-11-11T08:46:53.805Z,25.73
2022-11-11T08:48:55.634Z,27.77
2022-11-11T08:50:58.538Z,32.10
2022-11-11T08:53:00.409Z,25.33
2022-11-11T08:55:02.235Z,28.65
2022-11-11T08:57:04.505Z,22.88
2022-11-11T08:59:07.079Z,31.60
2022-11-11T09:01:13.881Z,24.90
2022-11-11T09:03:16.388Z,29.27
2022-11-11T09:05:19.310Z,27.65
2022-11-11T09:07:21.229Z,23.85
2022-11-11T09:09:23.380Z,26.08
2022-11-11T09:11:25.183Z,25.48
2022-11-11T09:13:27.691Z,25.80
2022-11-11T09:15:31.118Z,24.38
2022-11-11T09:17:33.013Z,23.42
2022-11-11T09:19:34.779Z,24.20
2022-11-11T09:21:37.099Z,25.83
2022-11-11T09:23:38.896Z,26.95
2022-11-11T09:25:41.109Z,30.00
2022-11-11T09:27:43.841Z,30.05
2022-11-11T09:29:45.663Z,23.08
2022-11-11T09:31:47.576Z,24.55
2022-11-11T09:33:51.734Z,25.35
2022-11-11T09:35:54.514Z,27.35
2022-11-11T09:37:57.810Z,31.88
2022-11-11T09:39:59.921Z,31.15
2022-11-11T09:42:17.796Z,27.95
2022-11-11T09:44:40.676Z,23.27
2022-11-11T09:46:45.582Z,26.55
2022-11-11T09:49:23.056Z,25.30
2022-11-11T09:51:32.798Z,25.38
2022-11-11T09:53:40.709Z,21.15
2022-11-11T09:55:52.570Z,24.20
2022-11-11T09:57:59.620Z,28.42
2022-11-11T10:00:05.472Z,27.48
2022-11-11T10:02:18.153Z,31.63
2022-11-11T10:04:34.860Z,28.80
2022-11-11T10:06:37.574Z,27.30
2022-11-11T10:08:48.695Z,26.42
2022-11-11T10:10:53.500Z,27.70
2022-11-11T10:12:59.398Z,22.85
2022-11-11T10:15:04.059Z,24.85
2022-11-11T10:17:24.999Z,27.05
2022-11-11T10:19:34.578Z,23.85
2022-11-11T10:22:10.607Z,24.85
2022-11-11T10:24:14.792Z,29.13
2022-11-11T10:26:22.376Z,32.83
2022-11-11T10:28:31.474Z,27.52
2022-11-11T10:30:34.014Z,20.60
2022-11-11T10:32:36.596Z,28.65
2022-11-11T10:34:38.456Z,26.67
2022-11-11T10:36:56.920Z,29.93
2022-11-11T10:39:01.804Z,25.55
2022-11-11T10:41:34.422Z,23.17
2022-11-11T10:43:36.316Z,22.92
2022-11-11T10:45:55.691Z,28.80
2022-11-11T10:48:15.967Z,27.80
2022-11-11T10:50:36.731Z,30.77
2022-11-11T10:52:48.314Z,27.73
2022-11-11T10:54:57.336Z,25.35
2022-11-11T10:57:09.996Z,22.77
2022-11-11T10:59:26.471Z,31.48
2022-11-11T11:01:37.502Z,30.35
2022-11-11T11:03:47.266Z,23.70
2022-11-11T11:05:57.434Z,23.83
2022-11-11T11:08:07.195Z,21.83
2022-11-11T11:10:16.811Z,27.58
2022-11-11T11:12:26.394Z,26.13
2022-11-11T11:14:42.057Z,24.80
2022-11-11T11:16:51.346Z,26.10
2022-11-11T11:19:17.055Z,28.23
2022-11-11T11:21:18.968Z,27.13
2022-11-11T11:23:36.754Z,24.80
2022-11-11T11:25:38.972Z,31.40
2022-11-11T11:27:40.775Z,26.25
2022-11-11T11:29:44.752Z,26.58
2022-11-11T11:31:47.926Z,28.95
2022-11-11T11:33:52.994Z,24.75
2022-11-11T11:35:54.826Z,25.92
2022-11-11T11:37:57.172Z,27.08
2022-11-11T11:40:01.673Z,22.75
2022-11-11T11:42:03.555Z,22.45
2022-11-11T11:44:25.831Z,20.90
2022-11-11T11:46:35.643Z,22.77
2022-11-11T11:48:47.937Z,25.35
2022-11-11T11:50:56.688Z,31.33
2022-11-11T11:53:04.402Z,29.77
2022-11-11T11:55:15.808Z,22.88
2022-11-11T11:57:27.043Z,23.48
2022-11-11T12:00:04.074Z,25.27
2022-11-11T12:02:15.016Z,25.20
2022-11-11T12:04:40.955Z,24.98
2022-11-11T12:07:12.610Z,32.35
2022-11-11T12:09:31.562Z,24.83
2022-11-11T12:12:14.447Z,24.20
2022-11-11T12:14:58.039Z,25.42
2022-11-11T12:17:03.263Z,27.80
2022-11-11T12:19:16.863Z,20.00
2022-11-11T12:21:24.919Z,28.30
2022-11-11T12:24:03.744Z,21.30
2022-11-11T12:26:53.458Z,20.48
2022-11-11T12:29:25.001Z,20.77
2022-11-11T12:31:36.057Z,20.27
2022-11-11T12:33:59.891Z,24.10
2022-11-11T12:36:23.762Z,19.63
2022-11-11T12:40:57.082Z,26.15
2022-11-11T12:43:27.364Z,22.25
2022-11-11T12:45:56.533Z,17.85
2022-11-11T12:48:11.567Z,23.42
2022-11-11T12:50:16.917Z,23.38
2022-11-11T12:52:54.715Z,19.13
2022-11-11T12:55:36.130Z,23.45
2022-11-11T12:57:51.530Z,25.00
2022-11-11T13:00:05.743Z,18.70
2022-11-11T13:02:38.938Z,15.68
2022-11-11T13:05:07.202Z,18.08
2022-11-11T13:07:25.436Z,23.77
2022-11-11T13:09:39.553Z,19.88
2022-11-11T13:12:18.149Z,22.05
2022-11-11T13:14:35.552Z,19.65
2022-11-11T13:16:37.350Z,19.05
2022-11-11T13:19:08.166Z,18.23
2022-11-11T13:21:18.287Z,21.92
2022-11-11T13:23:20.232Z,22.50
2022-11-11T13:25:24.902Z,22.77
2022-11-11T13:27:52.946Z,16.80
2022-11-11T13:30:12.599Z,22.30
2022-11-11T13:32:18.280Z,19.80
2022-11-11T13:34:21.453Z,21.98
2022-11-11T13:36:27.748Z,20.80
2022-11-11T13:38:36.235Z,21.95
2022-11-11T13:40:45.607Z,20.80
2022-11-11T13:42:50.974Z,18.58
2022-11-11T13:44:56.957Z,20.20
2022-11-11T13:47:07.777Z,22.17
2022-11-11T13:49:26.585Z,20.52
2022-11-11T13:51:42.894Z,21.20
2022-11-11T13:53:47.941Z,20.42
2022-11-11T13:55:53.179Z,19.63
2022-11-11T13:57:55.706Z,22.67
2022-11-11T14:00:03.262Z,19.95
2022-11-11T14:02:32.466Z,22.63
2022-11-11T14:05:04.076Z,13.27
2022-11-11T14:07:07.942Z,21.27
2022-11-11T14:09:09.795Z,23.58
2022-11-11T14:11:24.361Z,22.00
2022-11-11T14:13:34.784Z,20.52
2022-11-11T14:15:36.749Z,25.48
2022-11-11T14:17:44.841Z,23.85
2022-11-11T14:19:46.944Z,18.17
2022-11-11T14:21:51.323Z,20.25
2022-11-11T14:23:55.697Z,26.77
2022-11-11T14:26:06.391Z,26.90
2022-11-11T14:28:30.731Z,24.23
2022-11-11T14:30:40.492Z,25.05
2022-11-11T14:32:48.091Z,27.27
2022-11-11T14:35:07.319Z,24.77
2022-11-11T14:37:31.514Z,23.30
2022-11-11T14:39:41.386Z,24.70
2022-11-11T14:41:47.857Z,30.00
2022-11-11T14:43:50.165Z,25.50
2022-11-11T14:45:53.495Z,26.65
2022-11-11T14:47:56.575Z,24.35
2022-11-11T14:49:59.870Z,24.85
2022-11-11T14:54:07.083Z,24.40
2022-11-11T14:56:17.868Z,25.83
2022-11-11T14:58:24.246Z,22.15
2022-11-11T15:00:30.068Z,21.80
2022-11-11T15:02:38.575Z,24.80
2022-11-11T15:04:40.895Z,29.30
2022-11-11T15:06:48.943Z,23.77
2022-11-11T15:09:12.618Z,28.75
2022-11-11T15:11:29.676Z,23.90
2022-11-11T15:13:47.939Z,22.50
2022-11-11T15:16:09.027Z,26.02
2022-11-11T15:18:13.939Z,22.95
2022-11-11T15:20:53.248Z,26.05
2022-11-11T15:22:55.421Z,22.85
2022-11-11T15:25:17.871Z,25.40
2022-11-11T15:27:41.487Z,26.23
2022-11-11T15:30:02.205Z,26.38
2022-11-11T15:32:36.989Z,27.10
2022-11-11T15:34:56.011Z,26.70
2022-11-11T15:37:06.020Z,32.92
2022-11-11T15:39:14.155Z,32.72
2022-11-11T15:41:29.492Z,26.33
2022-11-11T15:43:38.616Z,33.72
2022-11-11T15:45:40.959Z,26.70
2022-11-11T15:47:42.875Z,31.20
2022-11-11T15:49:47.822Z,30.20
2022-11-11T15:51:56.582Z,30.05
2022-11-11T15:54:16.830Z,37.13
2022-11-11T15:56:33.333Z,33.08
2022-11-11T15:58:35.208Z,32.55
2022-11-11T16:00:38.155Z,32.70
2022-11-11T16:02:41.936Z,29.65
2022-11-11T16:04:55.756Z,31.63
2022-11-11T16:06:58.323Z,33.15
2022-11-11T16:09:00.753Z,31.25
2022-11-11T16:11:03.046Z,29.27
2022-11-11T16:13:14.033Z,32.70
2022-11-11T16:15:33.049Z,30.75
2022-11-11T16:17:41.389Z,24.90
2022-11-11T16:19:49.143Z,38.20
2022-11-11T16:21:59.965Z,32.70
2022-11-11T16:24:02.796Z,37.70
2022-11-11T16:26:06.322Z,27.27
2022-11-11T16:28:11.703Z,30.52
2022-11-11T16:30:32.156Z,31.92
2022-11-11T16:32:35.030Z,33.85
2022-11-11T16:34:43.406Z,29.23
2022-11-11T16:37:01.848Z,30.30
2022-11-11T16:39:34.102Z,33.67
2022-11-11T16:41:41.615Z,39.53
2022-11-11T16:43:43.864Z,31.48
2022-11-11T16:46:08.218Z,32.53
2022-11-11T16:48:33.762Z,31.70
2022-11-11T16:50:53.912Z,32.60
2022-11-11T16:52:58.056Z,29.27
2022-11-11T16:55:01.202Z,30.02
2022-11-11T16:57:03.155Z,32.03
2022-11-11T16:59:19.207Z,33.20
2022-11-11T17:01:21.433Z,36.58
2022-11-11T17:03:27.693Z,32.63
2022-11-11T17:06:08.942Z,37.30
2022-11-11T17:08:38.853Z,28.38
2022-11-11T17:10:40.738Z,35.58
2022-11-11T17:12:42.921Z,31.88
2022-11-11T17:14:45.097Z,30.15
2022-11-11T17:16:47.032Z,36.17
2022-11-11T17:18:49.204Z,34.47
2022-11-11T17:20:51.747Z,29.55
2022-11-11T17:22:56.850Z,30.80
2022-11-11T17:24:58.760Z,32.50
2022-11-11T17:27:00.999Z,28.42
2022-11-11T17:29:03.130Z,33.35
2022-11-11T17:31:06.325Z,32.60
2022-11-11T17:33:08.608Z,31.25
2022-11-11T17:35:11.948Z,33.88
2022-11-11T17:37:13.927Z,30.65
2022-11-11T17:39:16.239Z,32.38
2022-11-11T17:41:18.303Z,29.88
2022-11-11T17:43:20.843Z,34.08
2022-11-11T17:45:23.076Z,31.45
2022-11-11T17:47:25.269Z,31.27
2022-11-11T17:49:55.178Z,36.13
2022-11-11T17:51:49.383Z,30.30
2022-11-11T17:53:52.152Z,29.85
2022-11-11T17:55:54.423Z,33.13
2022-11-11T17:57:58.355Z,26.73
2022-11-11T18:00:00.282Z,30.95
2022-11-11T18:02:03.298Z,24.90
2022-11-11T18:04:06.411Z,32.92
2022-11-11T18:06:09.585Z,32.08
2022-11-11T18:10:14.515Z,32.08
2022-11-11T18:12:16.361Z,29.85
2022-11-11T18:14:18.463Z,28.70
2022-11-11T18:16:22.250Z,28.77
2022-11-11T18:18:24.321Z,35.63
2022-11-11T18:20:26.106Z,32.50
2022-11-11T18:22:28.920Z,31.88
2022-11-11T18:24:30.750Z,31.97
2022-11-11T18:26:33.121Z,32.08
2022-11-11T18:28:38.118Z,25.30
2022-11-11T18:30:40.155Z,32.22
2022-11-11T18:32:42.008Z,27.08
2022-11-11T18:34:44.768Z,26.45
2022-11-11T18:36:46.566Z,35.90
2022-11-11T18:38:48.467Z,26.88
2022-11-11T18:40:50.596Z,24.05
2022-11-11T18:42:52.819Z,28.97
2022-11-11T18:44:54.588Z,29.85
2022-11-11T18:46:56.890Z,28.30
2022-11-11T18:49:01.064Z,31.40
2022-11-11T18:51:03.707Z,32.30
2022-11-11T18:53:05.849Z,33.92
2022-11-11T18:55:08.112Z,31.55
2022-11-11T18:57:09.866Z,28.88
2022-11-11T18:59:12.206Z,28.70
2022-11-11T19:01:22.587Z,29.65
2022-11-11T19:03:25.120Z,25.65
2022-11-11T19:05:27.448Z,30.45
2022-11-11T19:07:29.257Z,27.23
2022-11-11T19:09:31.026Z,32.10
2022-11-11T19:11:37.111Z,31.90
2022-11-11T19:13:38.991Z,30.08
2022-11-11T19:15:41.794Z,32.67
2022-11-11T19:17:43.995Z,26.33
2022-11-11T19:19:45.830Z,27.10
2022-11-11T19:21:47.662Z,27.40
2022-11-11T19:23:51.642Z,31.23
2022-11-11T19:25:58.248Z,29.30
2022-11-11T19:28:00.115Z,30.15
2022-11-11T19:30:02.333Z,33.88
2022-11-11T19:32:04.507Z,34.17
2022-11-11T19:34:06.406Z,30.13
2022-11-11T19:36:11.244Z,35.05
2022-11-11T19:38:13.078Z,34.95
2022-11-11T19:40:15.137Z,28.05
2022-11-11T19:42:17.466Z,27.35
2022-11-11T19:44:19.434Z,35.45
2022-11-11T19:46:21.791Z,29.02
2022-11-11T19:48:24.090Z,33.63
2022-11-11T19:50:25.888Z,111.65
2022-11-11T19:52:27.764Z,36.50
2022-11-11T19:54:29.910Z,34.40
2022-11-11T19:56:31.828Z,30.35
2022-11-11T19:58:34.032Z,37.05
2022-11-11T20:00:36.429Z,33.92
2022-11-11T20:02:38.248Z,34.83
2022-11-11T20:04:40.138Z,33.28
2022-11-11T20:06:42.852Z,36.10
2022-11-11T20:08:44.764Z,29.63
2022-11-11T20:10:47.103Z,32.58
2022-11-11T20:12:52.062Z,29.48
2022-11-11T20:14:53.912Z,29.83
2022-11-11T20:16:55.796Z,30.60
2022-11-11T20:18:59.754Z,33.50
2022-11-11T20:21:03.406Z,29.90
2022-11-11T20:23:06.176Z,32.60
2022-11-11T20:25:08.311Z,30.35
2022-11-11T20:27:10.184Z,41.05
2022-11-11T20:29:12.204Z,31.42
2022-11-11T20:31:18.461Z,31.60
2022-11-11T20:33:20.225Z,30.13
2022-11-11T20:35:22.066Z,32.60
2022-11-11T20:37:24.301Z,35.95
2022-11-11T20:39:26.057Z,32.95
2022-11-11T20:41:27.878Z,34.75
2022-11-11T20:43:30.905Z,35.60
2022-11-11T20:45:32.828Z,33.03
2022-11-11T20:47:34.725Z,34.33
2022-11-11T20:49:36.935Z,36.35
2022-11-11T20:51:38.774Z,36.97
2022-11-11T20:53:41.229Z,34.83
2022-11-11T20:55:43.430Z,34.05
2022-11-11T20:57:45.222Z,30.88
2022-11-11T20:59:47.033Z,33.35
2022-11-11T21:01:49.391Z,31.48
2022-11-11T21:03:56.002Z,39.13
2022-11-11T21:06:10.255Z,33.42
2022-11-11T21:08:12.431Z,38.92
2022-11-11T21:10:14.495Z,38.78
2022-11-11T21:12:16.339Z,44.63
2022-11-11T21:14:18.586Z,35.88
2022-11-11T21:16:22.785Z,37.33
2022-11-11T21:18:24.623Z,32.38
2022-11-11T21:20:26.870Z,37.85
2022-11-11T21:22:28.664Z,39.10
2022-11-11T21:24:30.538Z,31.92
2022-11-11T21:26:35.890Z,36.00
2022-11-11T21:28:39.641Z,33.88
2022-11-11T21:30:41.471Z,33.08
2022-11-11T21:32:43.863Z,30.70
2022-11-11T21:34:45.850Z,36.08
2022-11-11T21:36:47.655Z,39.13
2022-11-11T21:38:50.595Z,29.40
2022-11-11T21:40:52.360Z,34.03
2022-11-11T21:42:58.229Z,34.55
2022-11-11T21:45:00.770Z,42.05
2022-11-11T21:47:02.926Z,27.77
2022-11-11T21:49:05.799Z,30.38
2022-11-11T21:51:19.985Z,34.25
2022-11-11T21:53:21.937Z,34.00
2022-11-11T21:55:23.740Z,34.50
2022-11-11T21:57:25.933Z,27.83
2022-11-11T21:59:27.690Z,31.13
2022-11-11T22:01:32.553Z,35.83
2022-11-11T22:03:36.187Z,36.17
2022-11-11T22:05:38.142Z,30.02
2022-11-11T22:07:39.968Z,36.78
2022-11-11T22:09:42.545Z,30.23
2022-11-11T22:11:44.358Z,34.58
2022-11-11T22:13:46.729Z,32.10
2022-11-11T22:15:57.979Z,34.10
2022-11-11T22:18:00.126Z,33.00
2022-11-11T22:20:01.885Z,36.72
2022-11-11T22:22:04.367Z,31.88
2022-11-11T22:24:09.261Z,30.90
2022-11-11T22:26:11.411Z,38.97
2022-11-11T22:28:13.566Z,39.65
2022-11-11T22:30:15.686Z,36.35
2022-11-11T22:32:17.491Z,33.00
2022-11-11T22:34:19.806Z,34.17
2022-11-11T22:36:21.616Z,35.70
2022-11-11T22:38:23.761Z,35.45
2022-11-11T22:40:26.334Z,39.35
2022-11-11T22:42:28.535Z,35.10
2022-11-11T22:44:30.836Z,38.45
2022-11-11T22:46:35.590Z,34.60
2022-11-11T22:48:38.867Z,35.30
2022-11-11T22:50:40.783Z,35.33
2022-11-11T22:52:47.922Z,37.00
2022-11-11T22:54:49.743Z,34.38
2022-11-11T22:56:51.613Z,33.38
2022-11-11T22:58:54.627Z,35.67
2022-11-11T23:01:01.821Z,39.45
2022-11-11T23:03:03.745Z,35.10
2022-11-11T23:05:05.963Z,34.80
2022-11-11T23:07:07.792Z,40.47
2022-11-11T23:09:10.366Z,36.28
2022-11-11T23:11:14.112Z,39.20
2022-11-11T23:13:15.905Z,33.75
2022-11-11T23:15:17.790Z,35.88
2022-11-11T23:17:19.951Z,34.75
2022-11-11T23:19:27.020Z,31.42
2022-11-11T23:21:31.179Z,37.20
2022-11-11T23:23:34.921Z,34.65
2022-11-11T23:25:36.717Z,33.08
2022-11-11T23:27:38.554Z,34.88
2022-11-11T23:29:40.670Z,39.92
2022-11-11T23:31:42.456Z,34.58
2022-11-11T23:33:46.654Z,39.85
2022-11-11T23:35:48.803Z,36.47
2022-11-11T23:37:50.659Z,32.83
2022-11-11T23:39:52.500Z,35.25
2022-11-11T23:41:54.598Z,34.15
2022-11-11T23:43:56.526Z,37.67
2022-11-11T23:45:58.706Z,35.42
2022-11-11T23:48:01.041Z,41.03
2022-11-11T23:50:02.848Z,35.00
2022-11-11T23:52:04.751Z,36.75
2022-11-11T23:54:06.912Z,41.22
2022-11-11T23:56:08.843Z,36.88
2022-11-11T23:58:11.787Z,39.85
